createdAt,value
2022-08-17T00:01:51.889Z,19.88
2022-08-17T00:06:54.136Z,19.90
2022-08-17T00:12:40.986Z,19.83
2022-08-17T00:17:18.241Z,19.82
2022-08-17T00:22:33.993Z,19.87
2022-08-17T00:27:37.601Z,19.85
2022-08-17T00:33:12.121Z,19.73
2022-08-17T00:38:05.189Z,19.82
2022-08-17T00:43:10.511Z,19.83
2022-08-17T00:48:29.491Z,19.82
2022-08-17T00:53:33.010Z,19.93
2022-08-17T00:58:36.146Z,19.91
2022-08-17T01:03:39.309Z,19.92
2022-08-17T01:08:40.882Z,20.05
2022-08-17T01:13:43.591Z,20.05
2022-08-17T01:18:47.632Z,19.91
2022-08-17T01:23:49.176Z,19.81
2022-08-17T01:28:54.846Z,19.60
2022-08-17T01:33:59.900Z,19.56
2022-08-17T01:39:04.912Z,19.58
2022-08-17T01:44:07.428Z,19.59
2022-08-17T01:49:11.735Z,19.59
2022-08-17T01:54:15.021Z,19.63
2022-08-17T01:59:18.276Z,19.65
2022-08-17T02:04:19.824Z,19.68
2022-08-17T02:09:25.269Z,19.68
2022-08-17T02:14:27.200Z,19.52
2022-08-17T02:19:28.649Z,19.38
2022-08-17T02:25:00.928Z,19.37
2022-08-17T02:29:53.781Z,19.28
2022-08-17T02:34:56.107Z,19.24
2022-08-17T02:39:58.380Z,19.12
2022-08-17T02:45:01.027Z,18.95
2022-08-17T02:50:02.487Z,18.94
2022-08-17T02:55:05.080Z,18.92
2022-08-17T03:00:10.156Z,18.95
2022-08-17T03:05:13.864Z,18.94
2022-08-17T03:10:15.346Z,18.84
2022-08-17T03:15:27.818Z,18.83
2022-08-17T03:20:30.560Z,18.64
2022-08-17T03:25:36.887Z,18.40
2022-08-17T03:30:40.338Z,18.25
2022-08-17T03:35:42.258Z,18.25
2022-08-17T03:40:57.256Z,18.41
2022-08-17T03:46:28.659Z,18.43
2022-08-17T03:51:55.142Z,18.57
2022-08-17T03:56:56.732Z,18.67
2022-08-17T04:02:00.920Z,18.69
2022-08-17T04:07:02.621Z,18.67
2022-08-17T04:12:05.183Z,18.69
2022-08-17T04:17:07.051Z,18.83
2022-08-17T04:22:08.498Z,18.86
2022-08-17T04:27:10.031Z,18.98
2022-08-17T04:32:11.522Z,19.01
2022-08-17T04:37:13.447Z,18.88
2022-08-17T04:42:17.311Z,18.90
2022-08-17T04:47:18.762Z,18.87
2022-08-17T04:52:32.256Z,19.01
2022-08-17T04:57:45.024Z,19.05
2022-08-17T05:02:50.973Z,19.06
2022-08-17T05:07:54.554Z,19.07
2022-08-17T05:13:00.098Z,19.10
2022-08-17T05:18:02.310Z,19.13
2022-08-17T05:23:07.190Z,19.06
2022-08-17T05:28:08.963Z,19.17
2022-08-17T05:33:13.267Z,19.23
2022-08-17T05:38:15.529Z,19.15
2022-08-17T05:43:18.689Z,19.06
2022-08-17T05:48:20.202Z,19.05
2022-08-17T05:53:26.515Z,19.08
2022-08-17T05:58:42.210Z,19.04
2022-08-17T06:03:57.861Z,19.12
2022-08-17T06:09:09.880Z,19.15
2022-08-17T06:14:24.439Z,19.30
2022-08-17T06:19:33.204Z,19.33
2022-08-17T06:24:53.458Z,19.35
2022-08-17T06:29:58.363Z,19.33
2022-08-17T06:35:02.107Z,19.35
2022-08-17T06:40:04.355Z,19.35
2022-08-17T06:45:17.662Z,19.40
2022-08-17T06:50:27.358Z,19.41
2022-08-17T06:55:38.342Z,19.44
2022-08-17T07:00:42.393Z,19.46
2022-08-17T07:05:43.871Z,19.58
2022-08-17T07:10:50.419Z,19.55
2022-08-17T07:15:57.065Z,19.58
2022-08-17T07:21:03.801Z,19.63
2022-08-17T07:26:06.910Z,19.73
2022-08-17T07:31:08.805Z,19.84
2022-08-17T07:36:29.140Z,19.97
2022-08-17T07:41:57.632Z,19.97
2022-08-17T07:47:14.874Z,19.97
2022-08-17T07:52:51.513Z,19.97
2022-08-17T07:57:54.939Z,20.03
2022-08-17T08:03:15.213Z,19.93
2022-08-17T08:08:21.522Z,19.90
2022-08-17T08:13:25.104Z,19.89
2022-08-17T08:18:38.581Z,19.92
2022-08-17T08:23:59.940Z,19.63
2022-08-17T08:29:08.359Z,19.53
2022-08-17T08:34:47.415Z,19.61
2022-08-17T08:39:44.310Z,19.65
2022-08-17T08:44:59.473Z,19.76
2022-08-17T08:50:37.330Z,19.91
2022-08-17T08:55:43.048Z,19.96
2022-08-17T09:00:48.281Z,19.82
2022-08-17T09:06:37.793Z,19.84
2022-08-17T09:12:01.923Z,19.57
2022-08-17T09:17:19.130Z,19.59
2022-08-17T09:22:38.642Z,19.53
2022-08-17T09:28:00.764Z,19.31
2022-08-17T09:33:06.371Z,19.17
2022-08-17T09:38:21.323Z,19.40
2022-08-17T09:43:38.404Z,19.57
2022-08-17T09:48:47.212Z,19.94
2022-08-17T09:53:49.833Z,20.26
2022-08-17T09:59:10.122Z,20.80
2022-08-17T10:04:32.783Z,20.73
2022-08-17T10:09:43.442Z,20.82
2022-08-17T10:15:08.214Z,20.67
2022-08-17T10:20:21.014Z,21.25
2022-08-17T10:25:55.117Z,21.54
2022-08-17T10:31:33.182Z,21.36
2022-08-17T10:47:54.741Z,21.53
2022-08-17T11:05:18.278Z,21.04
2022-08-17T11:10:38.743Z,20.84
2022-08-17T11:15:41.561Z,20.84
2022-08-17T11:21:01.457Z,20.66
2022-08-17T11:26:08.616Z,20.53
2022-08-17T11:31:39.336Z,20.21
2022-08-17T11:37:01.564Z,20.18
2022-08-17T11:42:25.759Z,19.99
2022-08-17T11:48:23.812Z,19.74
2022-08-17T11:53:37.374Z,19.78
2022-08-17T11:58:43.297Z,19.82
2022-08-17T12:03:55.703Z,19.89
2022-08-17T12:09:07.146Z,20.17
2022-08-17T12:14:16.979Z,19.88
2022-08-17T12:19:27.639Z,20.06
2022-08-17T12:24:56.803Z,20.06
2022-08-17T12:30:08.047Z,20.12
2022-08-17T12:35:27.066Z,20.08
2022-08-17T12:40:31.724Z,20.18
2022-08-17T12:45:36.479Z,20.07
2022-08-17T12:50:49.968Z,20.09
2022-08-17T12:55:51.788Z,20.19
2022-08-17T13:01:12.000Z,20.14
2022-08-17T13:06:25.430Z,20.21
2022-08-17T13:11:28.876Z,20.49
2022-08-17T13:16:33.944Z,20.61
2022-08-17T13:21:39.331Z,20.24
2022-08-17T13:26:48.388Z,20.54
2022-08-17T13:32:04.665Z,20.39
2022-08-17T13:37:31.632Z,20.35
2022-08-17T13:42:51.843Z,20.46
2022-08-17T13:48:14.048Z,20.42
2022-08-17T13:53:21.537Z,20.47
2022-08-17T13:58:32.397Z,20.21
2022-08-17T14:03:37.564Z,20.24
2022-08-17T14:08:39.377Z,20.31
2022-08-17T14:13:41.093Z,20.30
2022-08-17T14:18:56.241Z,20.32
2022-08-17T14:23:59.160Z,20.66
2022-08-17T14:29:01.815Z,20.73
2022-08-17T14:34:06.565Z,20.86
2022-08-17T14:39:09.626Z,20.99
2022-08-17T14:44:13.803Z,21.11
2022-08-17T14:49:15.885Z,21.32
2022-08-17T14:54:33.633Z,21.47
2022-08-17T14:59:35.985Z,21.48
2022-08-17T15:04:40.805Z,21.55
2022-08-17T15:09:45.656Z,21.49
2022-08-17T15:14:47.172Z,21.51
2022-08-17T15:19:51.927Z,21.61
2022-08-17T15:24:54.094Z,21.26
2022-08-17T15:29:59.723Z,21.43
2022-08-17T15:35:02.576Z,21.41
2022-08-17T15:40:07.729Z,21.35
2022-08-17T15:45:13.614Z,21.53
2022-08-17T15:50:15.213Z,21.48
2022-08-17T15:55:24.127Z,21.41
2022-08-17T16:00:28.452Z,21.54
2022-08-17T16:05:32.941Z,21.31
2022-08-17T16:10:35.763Z,21.40
2022-08-17T16:15:38.188Z,21.45
2022-08-17T16:20:39.808Z,21.29
2022-08-17T16:25:52.316Z,21.38
2022-08-17T16:30:58.642Z,21.18
2022-08-17T16:36:01.215Z,21.21
2022-08-17T16:41:03.843Z,21.23
2022-08-17T16:46:05.411Z,21.14
2022-08-17T16:51:06.943Z,21.13
2022-08-17T16:56:08.676Z,21.16
2022-08-17T17:01:11.720Z,21.26
2022-08-17T17:06:38.155Z,21.08
2022-08-17T17:11:39.549Z,20.84
2022-08-17T17:16:47.072Z,20.80
2022-08-17T17:21:52.004Z,20.89
2022-08-17T17:26:55.132Z,20.87
2022-08-17T17:32:05.708Z,20.73
2022-08-17T17:37:10.860Z,20.66
2022-08-17T17:42:19.919Z,20.59
2022-08-17T17:47:22.368Z,20.66
2022-08-17T17:52:36.655Z,20.41
2022-08-17T17:57:47.803Z,20.36
2022-08-17T18:02:53.106Z,20.42
2022-08-17T18:08:09.342Z,20.33
2022-08-17T18:13:15.995Z,20.17
2022-08-17T18:18:33.252Z,20.07
2022-08-17T18:23:35.688Z,20.10
2022-08-17T18:28:43.556Z,20.05
2022-08-17T18:33:47.035Z,19.90
2022-08-17T18:38:49.893Z,19.74
2022-08-17T18:44:20.071Z,19.63
2022-08-17T18:49:30.583Z,19.54
2022-08-17T18:54:33.110Z,19.45
2022-08-17T18:59:45.844Z,19.43
2022-08-17T19:05:07.546Z,19.34
2022-08-17T19:10:15.013Z,19.41
2022-08-17T19:15:17.972Z,19.38
2022-08-17T19:20:23.053Z,19.37
2022-08-17T19:25:37.124Z,19.42
2022-08-17T19:30:40.804Z,19.38
2022-08-17T19:35:56.214Z,19.32
2022-08-17T19:41:05.026Z,19.17
2022-08-17T19:46:20.012Z,19.08
2022-08-17T19:51:25.671Z,19.12
2022-08-17T19:56:43.834Z,19.06
2022-08-17T20:01:50.790Z,18.96
2022-08-17T20:06:54.266Z,18.97
2022-08-17T20:11:59.253Z,18.94
2022-08-17T20:17:02.971Z,18.96
2022-08-17T20:22:28.738Z,18.98
2022-08-17T20:27:34.848Z,18.97
2022-08-17T20:32:57.377Z,18.99
2022-08-17T20:38:12.483Z,18.95
2022-08-17T20:43:32.949Z,18.82
2022-08-17T20:48:38.969Z,18.86
2022-08-17T20:53:47.597Z,18.97
2022-08-17T20:58:51.504Z,18.98
2022-08-17T21:03:54.144Z,18.89
2022-08-17T21:09:22.342Z,18.90
2022-08-17T21:14:24.008Z,18.85
2022-08-17T21:19:44.418Z,18.78
2022-08-17T21:25:15.073Z,18.78
2022-08-17T21:30:25.440Z,18.69
2022-08-17T21:35:30.070Z,18.78
2022-08-17T21:40:33.782Z,18.79
2022-08-17T21:45:37.275Z,18.75
2022-08-17T21:50:43.263Z,18.76
2022-08-17T21:55:48.494Z,18.71
2022-08-17T22:01:11.415Z,18.83
2022-08-17T22:06:20.966Z,18.85
2022-08-17T22:11:23.000Z,18.73
2022-08-17T22:16:28.490Z,18.73
2022-08-17T22:21:31.610Z,18.68
2022-08-17T22:26:51.973Z,18.64
2022-08-17T22:31:56.247Z,18.59
2022-08-17T22:37:16.873Z,18.54
2022-08-17T22:42:18.609Z,18.58
2022-08-17T22:47:39.454Z,18.51
2022-08-17T22:53:21.851Z,18.53
2022-08-17T22:58:43.599Z,18.53
2022-08-17T23:04:11.718Z,18.51
2022-08-17T23:09:15.564Z,18.59
2022-08-17T23:14:19.342Z,18.57
2022-08-17T23:19:21.590Z,18.46
2022-08-17T23:24:24.872Z,18.53
2022-08-17T23:29:29.709Z,18.54
2022-08-17T23:34:31.124Z,18.49
2022-08-17T23:39:32.632Z,18.40
2022-08-17T23:44:38.125Z,18.41
2022-08-17T23:49:40.537Z,18.40
2022-08-17T23:54:46.613Z,18.39
2022-08-17T23:59:48.809Z,18.41
